METAR and TAF information
METAR FOR LGKV
ADDS - METARS form results

(0546 UTC 26 May 2018)
Data provider http://aviationweather.gov/adds/metars/
 
METAR text: LGKV 260520Z 00000KT 9999 FEW025 21/15 Q1014
Conditions at: LGKV (KAVALA/CHRISOUPO, GR) observed 0520 UTC 26 May 2018
Temperature: 21.0°C (70°F)
Dewpoint: 15.0°C (59°F) [RH = 69%]
Pressure (altimeter): 29.94 inches Hg (1014.0 mb)
Winds: calm
Visibility: 6 or more miles (10+ km)
Ceiling: at least 12,000 feet AGL
Clouds: few clouds at 2500 feet AGL
Weather: no significant weather observed at this time

METAR text: LGKV 260450Z 20004KT 9999 FEW025 19/14 Q1014
Conditions at: LGKV (KAVALA/CHRISOUPO, GR) observed 0450 UTC 26 May 2018
Temperature: 19.0°C (66°F)
Dewpoint: 14.0°C (57°F) [RH = 73%]
Pressure (altimeter): 29.94 inches Hg (1014.0 mb)
Winds: from the SSW (200 degrees) at 5 MPH (4 knots; 2.1 m/s)
Visibility: 6 or more miles (10+ km)
Ceiling: at least 12,000 feet AGL
Clouds: few clouds at 2500 feet AGL
Weather: no significant weather observed at this time

 Airport map

 Runway information
Runway 05R Runway length 9844 ft Runway width 148 ft
Runway elevation 11 ft Runway displaced threshold 0 ft Runway heading 55
Runway 23L Runway length 9844 ft Runway width 148 ft
Runway elevation 18 ft Runway displaced threshold 0 ft Runway heading 235

 Airport frequencies
Type A/G Name RDO Frequency 563.7 MHZ
Type APP Name KAVALA APP Frequency 122.1 MHZ
Type TWR Name TWR Frequency 118.4 MHZ

 Airport & nearby NAVAIDS
Type NDB Name Chrisoupolis Frequency 327 KHZ
Type VOR-DME Name Kavala Frequency 108800 KHZ
Type TACAN Name Kavala Frequency 114300 KHZ




Powered by VAM | Theme by g1g@byt3



Copyright © 2016 - 2018 Olympic Airlines Virtual. All rights reserved.

Olympic Airlines, Olympic Airways etc. are registered trademarks of
their respective owners and are hereby used only for educational
purposes.
Legal disclaimer